Time;durP1;ratioP1;P1;durP2;ratioP2;P2;SDS_P1;SDS_P2;PMS_P1;PMS_P2;Temp;Humidity;BMP_temperature;BMP_pressure;BME280_temperature;BME280_humidity;BME280_pressure;Samples;Min_cycle;Max_cycle;Signal;HPM_P1;HPM_P2
2022/01/07 00:02:10;;;;;;;9.00;4.67;;;0.00;94.00;;;;;;6247869;22;20225;-86
2022/01/07 00:04:38;;;;;;;10.27;5.23;;;0.00;94.20;;;;;;6248000;22;20203;-85
2022/01/07 00:07:05;;;;;;;11.17;4.87;;;-0.10;94.50;;;;;;6248605;22;20253;-85
2022/01/07 00:09:33;;;;;;;9.57;4.67;;;-0.10;94.40;;;;;;6247408;22;20233;-86
2022/01/07 00:12:00;;;;;;;6.83;3.97;;;-0.20;94.50;;;;;;6248444;22;20256;-86
2022/01/07 00:14:27;;;;;;;7.27;4.00;;;-0.30;94.80;;;;;;6247991;22;20644;-85
2022/01/07 00:16:54;;;;;;;7.43;4.20;;;-0.30;95.00;;;;;;6250452;22;20265;-85
2022/01/07 00:19:23;;;;;;;6.73;4.10;;;-0.30;95.10;;;;;;6247763;22;20272;-86
2022/01/07 00:21:50;;;;;;;6.00;4.00;;;-0.40;95.10;;;;;;6242207;22;20236;-86
2022/01/07 00:24:17;;;;;;;5.00;3.40;;;-0.40;95.10;;;;;;6242447;22;20272;-86
2022/01/07 00:26:44;;;;;;;6.30;3.60;;;-0.40;94.90;;;;;;6244723;22;20204;-86
2022/01/07 00:29:11;;;;;;;6.10;3.40;;;-0.60;94.70;;;;;;6249334;22;20701;-86
2022/01/07 00:31:38;;;;;;;5.03;3.13;;;-0.60;95.10;;;;;;6250432;22;20173;-86
2022/01/07 00:34:05;;;;;;;5.40;3.10;;;-0.70;95.10;;;;;;6246128;22;20199;-86
2022/01/07 00:36:34;;;;;;;4.87;3.20;;;-0.70;94.90;;;;;;6246133;22;20257;-87
2022/01/07 00:39:01;;;;;;;8.03;3.60;;;-0.80;95.00;;;;;;6244682;22;20203;-85
2022/01/07 00:41:28;;;;;;;6.63;3.37;;;-0.80;95.20;;;;;;6245124;22;20183;-86
2022/01/07 00:43:55;;;;;;;4.20;3.23;;;-0.90;94.90;;;;;;6243513;22;20293;-86
2022/01/07 00:46:22;;;;;;;8.20;3.47;;;-1.00;95.20;;;;;;6244856;22;20251;-86
2022/01/07 00:48:48;;;;;;;6.90;3.67;;;-1.00;95.40;;;;;;6244685;22;20272;-86
2022/01/07 00:51:15;;;;;;;4.73;2.97;;;-0.90;95.30;;;;;;6245121;22;20867;-86
2022/01/07 00:53:44;;;;;;;6.37;3.37;;;-0.80;95.00;;;;;;6244944;22;20173;-86
2022/01/07 00:56:11;;;;;;;6.13;3.23;;;-0.80;94.80;;;;;;6245171;22;20542;-86
2022/01/07 00:58:38;;;;;;;6.07;3.50;;;-0.70;94.80;;;;;;6245262;22;20231;-86
2022/01/07 01:01:05;;;;;;;3.53;3.17;;;-0.80;94.40;;;;;;6243234;22;20211;-86
2022/01/07 01:03:32;;;;;;;4.63;3.47;;;-0.80;94.70;;;;;;6243949;22;20288;-86
2022/01/07 01:05:59;;;;;;;5.50;3.27;;;-0.70;94.30;;;;;;6244807;22;20256;-86
2022/01/07 01:08:26;;;;;;;3.77;2.90;;;-0.70;94.00;;;;;;6246629;23;20172;-86
2022/01/07 01:10:55;;;;;;;5.67;3.17;;;-0.80;94.10;;;;;;6245791;22;20640;-87
2022/01/07 01:13:22;;;;;;;10.77;3.33;;;-0.90;94.30;;;;;;6246452;22;20178;-87
2022/01/07 01:15:50;;;;;;;4.07;3.03;;;-0.90;94.00;;;;;;6245568;22;20215;-86
2022/01/07 01:18:17;;;;;;;5.43;3.13;;;-1.00;94.20;;;;;;6246943;22;20196;-86
2022/01/07 01:20:44;;;;;;;4.23;3.07;;;-1.10;94.70;;;;;;6246457;22;20591;-86
2022/01/07 01:23:11;;;;;;;4.03;3.27;;;-1.10;94.60;;;;;;6246817;22;20663;-85
2022/01/07 01:25:38;;;;;;;3.77;2.53;;;-1.10;94.90;;;;;;6248082;22;20284;-85
2022/01/07 01:28:06;;;;;;;5.53;3.10;;;-1.10;94.80;;;;;;6249723;22;20173;-85
2022/01/07 01:30:35;;;;;;;5.87;3.20;;;-1.00;94.60;;;;;;6248658;22;20200;-87
2022/01/07 01:33:02;;;;;;;6.73;3.53;;;-0.90;94.30;;;;;;6250075;22;20445;-90
2022/01/07 01:35:29;;;;;;;5.67;2.90;;;-0.90;93.90;;;;;;6249742;22;20279;-86
2022/01/07 01:37:56;;;;;;;4.87;3.07;;;-0.90;93.80;;;;;;6251526;22;20171;-88
2022/01/07 01:40:25;;;;;;;5.23;3.10;;;-1.00;93.80;;;;;;6255171;22;20723;-88
2022/01/07 01:42:53;;;;;;;4.77;2.83;;;-1.10;94.00;;;;;;6255333;22;20193;-87
2022/01/07 01:45:22;;;;;;;4.93;2.60;;;-1.10;94.10;;;;;;6249167;22;20197;-88
2022/01/07 01:47:49;;;;;;;6.67;3.10;;;-1.10;93.80;;;;;;6252285;22;20604;-88
2022/01/07 01:50:16;;;;;;;5.77;2.60;;;-1.20;93.80;;;;;;6251798;22;20207;-88
2022/01/07 01:52:47;;;;;;;6.40;2.80;;;-1.30;93.80;;;;;;6251686;22;20639;-85
2022/01/07 01:55:15;;;;;;;5.23;2.70;;;-1.40;94.00;;;;;;6249957;22;20254;-86
2022/01/07 01:57:42;;;;;;;5.03;2.77;;;-1.50;94.30;;;;;;6251396;22;20173;-87
2022/01/07 02:00:10;;;;;;;4.83;2.80;;;-1.50;94.40;;;;;;6250143;22;20712;-88
2022/01/07 02:02:39;;;;;;;3.63;2.50;;;-1.60;94.50;;;;;;6251187;22;20200;-86
2022/01/07 02:05:06;;;;;;;4.43;2.87;;;-1.50;94.20;;;;;;6250019;22;20276;-87
2022/01/07 02:07:35;;;;;;;3.23;2.23;;;-1.50;94.00;;;;;;6250683;22;20169;-87
2022/01/07 02:10:03;;;;;;;3.17;2.30;;;-1.60;93.70;;;;;;6246069;22;20207;-86
2022/01/07 02:12:30;;;;;;;4.57;2.70;;;-1.70;94.10;;;;;;6249210;22;20251;-86
2022/01/07 02:14:57;;;;;;;4.90;2.67;;;-1.80;94.00;;;;;;6244923;22;20276;-87
2022/01/07 02:17:25;;;;;;;4.23;2.73;;;-1.80;94.20;;;;;;6247519;22;20490;-86
2022/01/07 02:19:54;;;;;;;3.73;2.50;;;-1.70;93.80;;;;;;6249170;22;20288;-86
2022/01/07 02:22:23;;;;;;;3.37;2.73;;;-1.60;93.70;;;;;;6249500;22;20224;-85
2022/01/07 02:24:51;;;;;;;5.40;2.83;;;-1.70;93.70;;;;;;6246805;22;20197;-87
2022/01/07 02:27:19;;;;;;;5.17;2.57;;;-1.70;93.70;;;;;;6246378;22;20173;-86
2022/01/07 02:29:50;;;;;;;6.20;2.90;;;-1.80;93.80;;;;;;6246090;22;20347;-85
2022/01/07 02:32:17;;;;;;;3.07;2.33;;;-1.70;94.00;;;;;;6246579;22;20612;-86
2022/01/07 02:34:44;;;;;;;5.17;2.40;;;-1.80;93.70;;;;;;6245725;22;20568;-87
2022/01/07 02:37:13;;;;;;;3.67;2.53;;;-1.90;93.90;;;;;;6247981;22;20284;-86
2022/01/07 02:39:41;;;;;;;4.07;2.50;;;-1.90;94.20;;;;;;6246265;22;20201;-86
2022/01/07 02:42:09;;;;;;;4.17;2.60;;;-2.00;93.80;;;;;;6246299;22;20169;-87
2022/01/07 02:44:36;;;;;;;2.97;2.37;;;-1.90;94.00;;;;;;6243756;22;20205;-87
2022/01/07 02:47:03;;;;;;;3.50;2.30;;;-1.80;93.60;;;;;;6246427;22;20169;-87
2022/01/07 02:49:30;;;;;;;4.23;2.57;;;-1.70;93.70;;;;;;6246679;22;20192;-86
2022/01/07 02:51:57;;;;;;;3.87;2.33;;;-1.70;93.70;;;;;;6246392;22;20183;-85
2022/01/07 02:54:25;;;;;;;4.67;2.50;;;-1.70;93.70;;;;;;6246843;22;20276;-86
2022/01/07 02:56:53;;;;;;;3.80;2.30;;;-1.80;93.60;;;;;;6251121;22;20188;-86
2022/01/07 02:59:19;;;;;;;4.50;2.50;;;-1.90;93.60;;;;;;6250333;22;20704;-85
2022/01/07 03:01:47;;;;;;;4.27;2.30;;;-1.90;93.60;;;;;;6251318;22;20617;-86
2022/01/07 03:04:14;;;;;;;3.47;2.40;;;-1.90;93.60;;;;;;6251037;22;20192;-86
2022/01/07 03:06:42;;;;;;;3.33;2.30;;;-1.90;93.60;;;;;;6252857;22;20257;-87
2022/01/07 03:09:09;;;;;;;3.50;2.30;;;-2.00;93.60;;;;;;6250541;22;20591;-85
2022/01/07 03:11:38;;;;;;;4.20;2.40;;;-1.90;93.60;;;;;;6250870;23;20172;-85
2022/01/07 03:14:05;;;;;;;3.77;2.10;;;-1.90;93.60;;;;;;6251333;22;20253;-87
2022/01/07 03:16:32;;;;;;;4.30;2.23;;;-2.00;93.60;;;;;;6254090;22;20268;-88
2022/01/07 03:19:01;;;;;;;4.13;2.40;;;-2.00;93.60;;;;;;6252277;22;20193;-88
2022/01/07 03:21:28;;;;;;;3.40;2.20;;;-1.90;93.60;;;;;;6253884;22;20169;-89
2022/01/07 03:23:55;;;;;;;3.60;2.30;;;-1.90;93.60;;;;;;6253242;22;20196;-87
2022/01/07 03:26:22;;;;;;;4.27;2.47;;;-1.90;93.60;;;;;;6254567;23;20176;-87
2022/01/07 03:28:50;;;;;;;2.73;2.17;;;-1.90;93.60;;;;;;6248456;22;20178;-89
2022/01/07 03:31:18;;;;;;;3.17;2.53;;;-1.90;93.60;;;;;;6246520;22;20169;-87
2022/01/07 03:33:44;;;;;;;4.60;2.63;;;-1.90;93.60;;;;;;6244692;22;20617;-88
2022/01/07 03:36:11;;;;;;;4.17;2.30;;;-2.10;93.60;;;;;;6245882;22;20565;-88
2022/01/07 03:38:38;;;;;;;2.73;2.30;;;-2.10;93.60;;;;;;6244866;22;20178;-88
2022/01/07 03:41:05;;;;;;;5.40;2.37;;;-2.10;93.60;;;;;;6245590;22;20164;-87
2022/01/07 03:43:32;;;;;;;5.00;2.40;;;-2.20;93.60;;;;;;6245379;22;20197;-87
2022/01/07 03:46:00;;;;;;;4.77;2.90;;;-2.10;93.60;;;;;;6246872;22;20674;-88
2022/01/07 03:48:28;;;;;;;5.03;2.97;;;-2.00;93.60;;;;;;6245754;22;20244;-87
2022/01/07 03:50:54;;;;;;;4.83;2.57;;;-2.10;93.60;;;;;;6246183;22;20203;-87
2022/01/07 03:53:24;;;;;;;2.70;2.30;;;-2.00;93.60;;;;;;6246780;22;20232;-88
2022/01/07 03:55:52;;;;;;;3.17;2.10;;;-2.10;93.60;;;;;;6246639;22;20496;-89
2022/01/07 03:58:19;;;;;;;4.17;2.50;;;-2.10;93.60;;;;;;6246220;22;20212;-87
2022/01/07 04:00:46;;;;;;;3.83;2.20;;;-2.20;93.60;;;;;;6246723;22;20294;-88
2022/01/07 04:03:18;;;;;;;7.70;2.60;;;-2.30;93.50;;;;;;6246815;22;20279;-88
2022/01/07 04:05:45;;;;;;;3.27;2.50;;;-2.50;94.00;;;;;;6246900;22;20203;-87
2022/01/07 04:08:12;;;;;;;3.13;2.20;;;-2.50;94.30;;;;;;6247982;22;20639;-88
2022/01/07 04:10:40;;;;;;;4.40;2.67;;;-2.40;94.00;;;;;;6247381;22;20221;-89
2022/01/07 04:13:07;;;;;;;3.77;2.53;;;-2.40;94.00;;;;;;6247770;22;20189;-89
2022/01/07 04:15:34;;;;;;;2.63;2.27;;;-2.40;94.10;;;;;;6247811;22;20205;-88
2022/01/07 04:18:01;;;;;;;6.03;3.10;;;-2.40;93.90;;;;;;6244845;22;20192;-87
2022/01/07 04:20:31;;;;;;;4.77;2.20;;;-2.30;93.60;;;;;;6244653;22;20278;-88
2022/01/07 04:22:59;;;;;;;3.80;2.17;;;-2.30;93.50;;;;;;6247734;22;20672;-87
2022/01/07 04:25:27;;;;;;;4.33;2.20;;;-2.30;93.50;;;;;;6243897;22;20712;-86
2022/01/07 04:27:58;;;;;;;2.97;2.10;;;-2.30;93.20;;;;;;6244691;22;20250;-88
2022/01/07 04:30:29;;;;;;;4.43;2.23;;;-2.30;93.00;;;;;;6244513;22;20201;-88
2022/01/07 04:32:56;;;;;;;3.67;2.20;;;-2.40;93.50;;;;;;6244804;22;20160;-88
2022/01/07 04:35:24;;;;;;;4.53;2.03;;;-2.40;93.50;;;;;;6244166;22;20220;-88
2022/01/07 04:37:52;;;;;;;3.30;2.03;;;-2.40;93.30;;;;;;6244019;22;20908;-86
2022/01/07 04:40:20;;;;;;;5.20;2.00;;;-2.30;93.20;;;;;;6244300;22;20279;-90
2022/01/07 04:42:48;;;;;;;2.73;2.03;;;-2.40;93.10;;;;;;6244777;22;20554;-88
2022/01/07 04:45:15;;;;;;;2.73;2.00;;;-2.50;93.10;;;;;;6243030;22;20660;-88
2022/01/07 04:47:42;;;;;;;2.13;1.70;;;-2.50;93.50;;;;;;6244164;22;20256;-89
2022/01/07 04:50:12;;;;;;;2.33;1.93;;;-2.50;93.20;;;;;;6243966;22;20200;-88
2022/01/07 04:52:41;;;;;;;4.00;2.10;;;-2.60;93.20;;;;;;6244568;22;20164;-88
2022/01/07 04:55:10;;;;;;;2.80;1.80;;;-2.60;93.30;;;;;;6256742;22;20208;-88
2022/01/07 04:57:37;;;;;;;2.43;2.00;;;-2.70;93.30;;;;;;6246413;22;20172;-87
2022/01/07 05:00:05;;;;;;;2.90;1.97;;;-2.70;93.40;;;;;;6244853;22;20196;-89
2022/01/07 05:02:32;;;;;;;2.50;1.90;;;-2.80;93.40;;;;;;6246470;22;20220;-87
2022/01/07 05:04:59;;;;;;;2.47;2.00;;;-2.90;93.40;;;;;;6245422;22;20271;-89
2022/01/07 05:07:25;;;;;;;3.80;1.87;;;-2.90;93.40;;;;;;6245958;22;20348;-88
2022/01/07 05:09:53;;;;;;;2.13;1.93;;;-2.90;93.40;;;;;;6246681;22;20204;-87
2022/01/07 05:12:21;;;;;;;4.03;1.87;;;-2.80;93.40;;;;;;6250652;22;20311;-88
2022/01/07 05:14:48;;;;;;;2.73;1.87;;;-2.80;93.40;;;;;;6248672;22;20509;-89
2022/01/07 05:17:15;;;;;;;2.73;1.90;;;-2.80;93.40;;;;;;6250177;22;20195;-88
2022/01/07 05:19:42;;;;;;;2.97;1.90;;;-2.90;93.40;;;;;;6250191;22;20280;-88
2022/01/07 05:22:09;;;;;;;4.03;1.73;;;-2.90;93.40;;;;;;6250138;22;20251;-88
2022/01/07 05:24:36;;;;;;;3.47;2.07;;;-2.90;93.40;;;;;;6251426;22;20219;-88
2022/01/07 05:27:04;;;;;;;2.33;1.80;;;-2.90;93.70;;;;;;6252784;22;20233;-90
2022/01/07 05:29:35;;;;;;;3.50;2.20;;;-3.10;93.50;;;;;;6253067;22;20268;-87
2022/01/07 05:32:02;;;;;;;5.17;2.13;;;-3.20;94.10;;;;;;6255063;22;20171;-89
2022/01/07 05:34:29;;;;;;;3.33;2.13;;;-3.10;94.10;;;;;;6253955;22;20215;-87
2022/01/07 05:36:57;;;;;;;5.50;1.77;;;-3.00;94.00;;;;;;6255030;22;20239;-87
2022/01/07 05:39:24;;;;;;;4.23;2.10;;;-2.90;93.40;;;;;;6253896;22;20547;-87
2022/01/07 05:41:51;;;;;;;2.70;1.67;;;-2.80;93.40;;;;;;6253061;22;20232;-88
2022/01/07 05:44:19;;;;;;;2.07;1.80;;;-2.70;93.50;;;;;;6252540;22;20222;-89
2022/01/07 05:46:47;;;;;;;3.03;2.07;;;-2.70;93.50;;;;;;6254089;22;20228;-87
2022/01/07 05:49:15;;;;;;;3.37;2.60;;;-2.90;93.40;;;;;;6254032;22;20202;-89
2022/01/07 05:51:42;;;;;;;4.53;2.20;;;-3.10;93.40;;;;;;6252388;22;20252;-87
2022/01/07 05:54:10;;;;;;;5.23;1.93;;;-3.10;93.80;;;;;;6255108;22;20865;-87
2022/01/07 05:56:37;;;;;;;2.80;2.10;;;-3.20;93.90;;;;;;6261130;22;20604;-89
2022/01/07 05:59:06;;;;;;;4.17;1.80;;;-3.10;94.20;;;;;;6258403;22;20228;-87
2022/01/07 06:01:33;;;;;;;3.20;2.00;;;-3.00;94.10;;;;;;6257342;22;20695;-87
2022/01/07 06:04:01;;;;;;;3.70;2.23;;;-3.00;93.80;;;;;;6257398;22;20270;-88
2022/01/07 06:06:29;;;;;;;2.20;2.00;;;-3.10;94.00;;;;;;6258152;22;20680;-87
2022/01/07 06:08:56;;;;;;;3.80;2.20;;;-3.00;93.90;;;;;;6257931;22;20215;-89
2022/01/07 06:11:23;;;;;;;3.50;1.90;;;-3.00;93.90;;;;;;6256958;22;20203;-87
2022/01/07 06:13:50;;;;;;;3.97;2.30;;;-2.90;93.80;;;;;;6255844;22;20172;-88
2022/01/07 06:16:17;;;;;;;3.27;2.00;;;-2.90;93.60;;;;;;6255340;22;20215;-89
2022/01/07 06:18:51;;;;;;;2.03;1.83;;;-3.00;93.70;;;;;;6254058;22;20187;-87
2022/01/07 06:21:21;;;;;;;2.83;2.20;;;-2.90;93.70;;;;;;6253072;22;20167;-88
2022/01/07 06:23:49;;;;;;;3.27;2.00;;;-3.00;93.80;;;;;;6252743;22;20197;-88
2022/01/07 06:26:16;;;;;;;2.50;2.27;;;-2.90;93.80;;;;;;6252412;22;20820;-87
2022/01/07 06:28:43;;;;;;;2.67;2.33;;;-2.90;93.50;;;;;;6253716;22;20254;-87
2022/01/07 06:31:11;;;;;;;2.70;1.80;;;-2.70;93.50;;;;;;6253459;22;20255;-87
2022/01/07 06:33:38;;;;;;;5.47;2.57;;;-2.80;93.40;;;;;;6252725;22;20263;-88
2022/01/07 06:36:05;;;;;;;3.77;2.23;;;-2.80;93.40;;;;;;6253553;22;20171;-85
2022/01/07 06:38:34;;;;;;;3.10;2.13;;;-2.80;93.40;;;;;;6259483;22;20280;-87
2022/01/07 06:41:01;;;;;;;3.70;2.20;;;-2.80;93.40;;;;;;6258713;22;20194;-86
2022/01/07 06:43:28;;;;;;;5.97;2.27;;;-2.70;93.50;;;;;;6259896;22;20203;-89
2022/01/07 06:45:55;;;;;;;6.03;2.30;;;-2.70;93.40;;;;;;6257374;22;20244;-86
2022/01/07 06:48:22;;;;;;;3.27;1.90;;;-2.70;93.20;;;;;;6258897;22;20228;-85
2022/01/07 06:50:50;;;;;;;2.87;2.33;;;-2.80;93.00;;;;;;6256092;22;20251;-88
2022/01/07 06:53:17;;;;;;;6.73;2.50;;;-2.80;93.40;;;;;;6248711;22;20173;-87
2022/01/07 06:55:46;;;;;;;2.70;2.03;;;-2.80;93.40;;;;;;6250834;22;20575;-87
2022/01/07 06:58:13;;;;;;;3.73;2.20;;;-2.80;93.40;;;;;;6249626;22;20176;-88
2022/01/07 07:00:40;;;;;;;3.33;2.07;;;-2.90;93.40;;;;;;6248828;22;20200;-90
2022/01/07 07:03:07;;;;;;;3.70;1.90;;;-3.00;93.40;;;;;;6250615;22;20703;-88
2022/01/07 07:05:34;;;;;;;4.00;2.20;;;-3.00;93.40;;;;;;6250487;22;20200;-87
2022/01/07 07:08:01;;;;;;;5.20;1.80;;;-3.00;93.40;;;;;;6249492;22;20182;-88
2022/01/07 07:10:29;;;;;;;3.63;1.77;;;-3.00;93.40;;;;;;6250595;23;20228;-88
2022/01/07 07:12:57;;;;;;;2.33;1.87;;;-2.90;93.40;;;;;;6250923;22;20251;-88
2022/01/07 07:15:24;;;;;;;3.67;2.10;;;-2.90;93.40;;;;;;6250506;22;20201;-88
2022/01/07 07:17:51;;;;;;;4.57;1.90;;;-2.70;93.20;;;;;;6252727;22;20209;-88
2022/01/07 07:20:19;;;;;;;3.80;2.00;;;-2.60;92.80;;;;;;6252424;22;21078;-86
2022/01/07 07:22:47;;;;;;;2.67;1.90;;;-2.30;92.40;;;;;;6254027;22;20174;-87
2022/01/07 07:25:14;;;;;;;3.33;1.93;;;-2.20;91.90;;;;;;6250736;22;20264;-88
2022/01/07 07:27:43;;;;;;;3.30;1.60;;;-2.10;91.50;;;;;;6254606;22;20261;-88
2022/01/07 07:30:13;;;;;;;3.93;1.90;;;-2.00;91.30;;;;;;6249360;23;20233;-86
2022/01/07 07:32:41;;;;;;;2.33;1.80;;;-1.90;91.30;;;;;;6252460;23;20225;-89
2022/01/07 07:37:54;;;;;;;2.43;1.87;;;-2.10;91.00;;;;;;6249425;23;20180;-85
2022/01/07 07:40:22;;;;;;;3.77;1.87;;;-2.20;90.90;;;;;;6248324;23;20531;-86
2022/01/07 07:42:49;;;;;;;3.67;2.00;;;-2.00;90.90;;;;;;6254610;22;20282;-87
2022/01/07 07:45:17;;;;;;;2.73;1.90;;;-2.10;90.90;;;;;;6247648;22;20280;-86
2022/01/07 07:47:44;;;;;;;2.90;1.80;;;-1.90;90.70;;;;;;6249974;22;20635;-87
2022/01/07 07:50:12;;;;;;;2.73;1.80;;;-1.80;90.60;;;;;;6248755;22;20196;-85
2022/01/07 07:52:39;;;;;;;3.97;1.83;;;-1.80;90.50;;;;;;6257197;22;20256;-85
2022/01/07 07:55:07;;;;;;;2.30;1.87;;;-1.80;90.80;;;;;;6251158;23;20553;-86
2022/01/07 07:57:34;;;;;;;2.27;1.70;;;-1.70;90.60;;;;;;6254003;22;20174;-87
2022/01/07 08:00:03;;;;;;;3.70;1.90;;;-1.60;90.60;;;;;;6253074;22;20205;-86
2022/01/07 08:02:31;;;;;;;2.63;1.93;;;-1.40;90.40;;;;;;6251786;22;20169;-86
2022/01/07 08:04:59;;;;;;;3.03;1.90;;;-1.10;90.40;;;;;;6250475;23;20201;-87
2022/01/07 08:07:26;;;;;;;2.73;1.90;;;-0.80;88.40;;;;;;6252603;22;20548;-87
2022/01/07 08:09:54;;;;;;;3.63;2.30;;;-0.60;86.70;;;;;;6252093;22;20200;-86
2022/01/07 08:12:26;;;;;;;6.10;2.23;;;-0.40;86.20;;;;;;6253843;22;20179;-87
2022/01/07 08:17:39;;;;;;;5.87;2.70;;;-0.10;83.50;;;;;;6201493;22;20188;-83
2022/01/07 08:20:07;;;;;;;3.33;2.43;;;0.00;82.20;;;;;;6246268;22;20224;-84
2022/01/07 08:22:37;;;;;;;4.33;2.37;;;-0.10;82.40;;;;;;6249797;22;20178;-83
2022/01/07 08:25:17;;;;;;;4.73;2.77;;;-0.10;82.40;;;;;;6249626;22;20259;-86
2022/01/07 08:27:44;;;;;;;4.10;2.27;;;-0.30;83.20;;;;;;6249026;22;20190;-83
2022/01/07 08:30:15;;;;;;;3.57;2.37;;;-0.30;83.30;;;;;;6250150;22;20373;-81
2022/01/07 08:35:37;;;;;;;4.37;2.10;;;-0.30;85.60;;;;;;6250540;22;20262;-82
2022/01/07 08:38:07;;;;;;;3.57;2.37;;;-0.10;85.80;;;;;;6251572;22;20177;-83
2022/01/07 08:40:41;;;;;;;4.33;2.10;;;-0.10;83.90;;;;;;6250266;22;20218;-83
2022/01/07 08:43:08;;;;;;;2.53;1.97;;;0.00;83.80;;;;;;6253373;22;20207;-82
2022/01/07 08:45:36;;;;;;;3.73;2.20;;;0.30;83.60;;;;;;6250844;22;20273;-84
2022/01/07 08:48:05;;;;;;;3.50;2.00;;;0.20;83.70;;;;;;6250288;22;20165;-81
2022/01/07 08:50:32;;;;;;;5.50;2.07;;;0.10;83.80;;;;;;6250497;22;20215;-82
2022/01/07 08:53:01;;;;;;;4.60;2.10;;;0.30;83.50;;;;;;6247047;22;20247;-86
2022/01/07 08:55:38;;;;;;;2.63;2.03;;;0.50;82.10;;;;;;6250748;22;20262;-83
2022/01/07 08:58:06;;;;;;;2.33;1.70;;;0.70;79.80;;;;;;6251701;22;20221;-82
2022/01/07 09:00:33;;;;;;;2.80;2.00;;;0.90;78.60;;;;;;6249439;22;20276;-82
2022/01/07 09:03:04;;;;;;;2.63;2.00;;;1.00;76.90;;;;;;6253522;23;20172;-82
2022/01/07 09:05:34;;;;;;;3.10;1.80;;;1.10;77.80;;;;;;6255495;22;20417;-88
2022/01/07 09:08:06;;;;;;;3.00;2.03;;;1.40;76.80;;;;;;6251089;22;20233;-82
2022/01/07 09:10:34;;;;;;;4.43;2.10;;;1.80;75.10;;;;;;6252440;22;20173;-82
2022/01/07 09:13:01;;;;;;;4.03;1.90;;;2.20;68.40;;;;;;6248655;22;20192;-83
2022/01/07 09:15:29;;;;;;;2.70;1.80;;;2.40;67.00;;;;;;6248466;22;20244;-82
2022/01/07 09:18:35;;;;;;;2.90;2.03;;;2.70;67.30;;;;;;6247942;23;20174;-86
2022/01/07 09:24:54;;;;;;;2.97;1.50;;;4.10;56.60;;;;;;6258781;22;20204;-87
2022/01/07 09:27:22;;;;;;;2.90;1.83;;;4.60;49.80;;;;;;6249364;23;20201;-87
2022/01/07 09:29:49;;;;;;;4.00;2.17;;;4.90;45.30;;;;;;6248365;22;20265;-87
2022/01/07 09:32:16;;;;;;;2.37;1.73;;;5.10;44.40;;;;;;6249345;23;20192;-86
2022/01/07 09:35:11;;;;;;;3.60;1.73;;;5.00;44.30;;;;;;6249355;23;20260;-87
2022/01/07 09:37:53;;;;;;;5.37;2.20;;;4.80;44.10;;;;;;6221057;23;20165;-87
2022/01/07 09:40:22;;;;;;;2.27;1.43;;;4.80;44.20;;;;;;6213908;23;20201;-89
2022/01/07 09:43:15;;;;;;;1.40;1.30;;;4.50;43.90;;;;;;6248132;22;20154;-91
2022/01/07 09:45:42;;;;;;;4.03;1.70;;;4.50;43.90;;;;;;6247490;23;20205;-87
2022/01/07 09:48:09;;;;;;;3.27;1.90;;;4.30;43.70;;;;;;6248000;23;20229;-86
2022/01/07 09:50:37;;;;;;;5.20;2.67;;;4.20;46.00;;;;;;6248776;23;20494;-85
2022/01/07 09:53:06;;;;;;;2.33;1.70;;;4.10;50.20;;;;;;6244953;23;20165;-87
2022/01/07 09:55:35;;;;;;;2.90;1.83;;;4.10;47.40;;;;;;6246579;23;20221;-86
2022/01/07 09:58:03;;;;;;;3.73;1.43;;;3.80;47.50;;;;;;6250017;23;20578;-87
2022/01/07 10:00:35;;;;;;;1.70;1.50;;;3.60;47.40;;;;;;6248722;23;20201;-86
2022/01/07 10:03:03;;;;;;;1.70;1.60;;;3.80;47.90;;;;;;6249352;23;20181;-86
2022/01/07 10:05:31;;;;;;;3.13;1.83;;;3.90;46.50;;;;;;6246142;23;20207;-86
2022/01/07 10:08:13;;;;;;;1.50;1.40;;;3.80;46.60;;;;;;6246463;23;20162;-86
2022/01/07 10:10:41;;;;;;;2.27;1.77;;;4.00;47.50;;;;;;6244961;23;20584;-85
2022/01/07 10:13:08;;;;;;;2.63;2.00;;;4.20;48.80;;;;;;6248578;23;20554;-85
2022/01/07 10:15:38;;;;;;;3.73;1.67;;;4.30;45.40;;;;;;6249019;22;20228;-85
2022/01/07 10:18:06;;;;;;;2.50;1.67;;;4.30;45.10;;;;;;6249637;23;20219;-84
2022/01/07 10:20:36;;;;;;;5.53;1.80;;;4.00;43.70;;;;;;6248057;23;20232;-85
2022/01/07 10:23:06;;;;;;;2.27;1.70;;;3.70;47.70;;;;;;6248785;23;20673;-85
2022/01/07 10:25:35;;;;;;;3.70;1.37;;;3.80;46.80;;;;;;6248036;23;20271;-86
2022/01/07 10:28:06;;;;;;;2.13;1.50;;;3.70;43.50;;;;;;6246910;23;20213;-90
2022/01/07 10:30:35;;;;;;;2.80;1.90;;;3.40;45.30;;;;;;6248206;23;20197;-87
2022/01/07 10:33:17;;;;;;;1.90;1.40;;;3.30;47.60;;;;;;6252343;23;20251;-86
2022/01/07 10:35:44;;;;;;;2.67;1.60;;;3.20;49.30;;;;;;6247579;23;20516;-84
2022/01/07 10:38:16;;;;;;;4.67;1.67;;;3.30;49.40;;;;;;6250377;23;20174;-84
2022/01/07 10:40:44;;;;;;;2.17;1.60;;;3.10;49.50;;;;;;6249114;23;20248;-86
2022/01/07 10:43:16;;;;;;;3.20;1.70;;;3.00;49.10;;;;;;6250836;23;20173;-85
2022/01/07 10:45:45;;;;;;;2.70;1.53;;;2.90;50.90;;;;;;6249772;23;20272;-87
2022/01/07 10:48:12;;;;;;;2.50;1.80;;;2.90;50.90;;;;;;6250342;23;20175;-86
2022/01/07 10:50:42;;;;;;;3.03;1.77;;;2.90;52.40;;;;;;6250078;23;20710;-89
2022/01/07 10:53:23;;;;;;;2.10;1.80;;;3.00;54.80;;;;;;6253052;23;20589;-85
2022/01/07 10:56:14;;;;;;;2.53;1.70;;;3.10;51.90;;;;;;6228016;23;20268;-84
2022/01/07 10:59:05;;;;;;;2.50;1.70;;;2.80;52.10;;;;;;6239490;23;20173;-85
2022/01/07 11:01:41;;;;;;;3.47;1.60;;;3.10;52.50;;;;;;6223345;23;20173;-90
2022/01/07 11:04:11;;;;;;;1.77;1.60;;;3.40;50.30;;;;;;6249251;23;20197;-87
2022/01/07 11:06:39;;;;;;;4.63;1.57;;;3.60;51.40;;;;;;6225780;23;20264;-90
2022/01/07 11:09:09;;;;;;;2.47;1.60;;;3.80;48.20;;;;;;6252152;23;20275;-90
2022/01/07 11:11:49;;;;;;;5.67;1.80;;;3.90;43.70;;;;;;6253555;22;20165;-91
2022/01/07 11:14:23;;;;;;;4.23;1.60;;;3.90;48.40;;;;;;6252024;22;20200;-89
2022/01/07 11:17:21;;;;;;;1.97;1.53;;;4.10;43.60;;;;;;6246420;22;20680;-90
2022/01/07 11:19:53;;;;;;;2.50;1.60;;;4.30;44.80;;;;;;6251497;22;20512;-93
2022/01/07 11:22:22;;;;;;;1.87;1.60;;;4.20;43.70;;;;;;6250292;23;20229;-93
2022/01/07 11:24:54;;;;;;;2.97;1.67;;;4.30;46.20;;;;;;6245226;23;20192;-93
2022/01/07 11:27:25;;;;;;;2.00;1.70;;;4.40;43.80;;;;;;6250955;23;20157;-89
2022/01/07 11:30:11;;;;;;;2.87;1.87;;;4.30;47.20;;;;;;6248453;22;20925;-90
2022/01/07 11:32:40;;;;;;;1.90;1.70;;;4.10;45.10;;;;;;6246752;23;20161;-90
2022/01/07 11:35:45;;;;;;;5.30;1.70;;;4.00;45.50;;;;;;6246083;22;20200;-89
2022/01/07 11:38:43;;;;;;;3.10;1.57;;;3.90;44.60;;;;;;6247170;23;20183;-89
2022/01/07 11:41:16;;;;;;;2.93;1.70;;;3.90;43.40;;;;;;6246469;22;20563;-90
2022/01/07 11:43:46;;;;;;;2.10;1.90;;;3.90;43.40;;;;;;6245271;23;20505;-90
2022/01/07 11:46:31;;;;;;;2.97;1.60;;;4.20;42.30;;;;;;6220709;23;20635;-88
2022/01/07 11:49:01;;;;;;;3.13;1.50;;;4.00;43.50;;;;;;6244066;23;20197;-87
2022/01/07 11:51:40;;;;;;;1.57;1.37;;;3.70;43.20;;;;;;6248410;23;20169;-88
2022/01/07 11:54:10;;;;;;;2.17;1.50;;;3.60;46.10;;;;;;6245686;23;20195;-86
2022/01/07 11:56:38;;;;;;;4.37;1.47;;;3.70;43.20;;;;;;6247880;23;20169;-86
2022/01/07 11:59:27;;;;;;;1.73;1.43;;;3.70;43.70;;;;;;6250334;23;20680;-88
2022/01/07 12:02:13;;;;;;;2.03;1.40;;;3.80;44.50;;;;;;6248192;23;20157;-89
2022/01/07 12:04:40;;;;;;;3.07;1.40;;;3.80;44.20;;;;;;6246841;23;20208;-87
2022/01/07 12:07:14;;;;;;;3.40;1.63;;;4.00;43.50;;;;;;6248898;23;20231;-86
2022/01/07 12:09:42;;;;;;;2.33;1.40;;;4.00;43.50;;;;;;6221568;23;20195;-86
2022/01/07 12:18:36;;;;;;;2.23;1.27;;;3.60;43.10;;;;;;6248741;22;20193;-89
2022/01/07 12:21:04;;;;;;;3.70;1.40;;;3.70;44.80;;;;;;6247675;22;20209;-88
2022/01/07 12:24:10;;;;;;;1.70;1.47;;;3.70;43.20;;;;;;6249483;23;20229;-89
2022/01/07 12:26:37;;;;;;;2.70;1.40;;;3.90;43.40;;;;;;6247784;23;20265;-85
2022/01/07 12:29:15;;;;;;;2.53;1.63;;;3.80;42.40;;;;;;6246205;23;20246;-87
2022/01/07 12:31:50;;;;;;;2.07;1.50;;;3.90;42.20;;;;;;6250354;23;20164;-85
2022/01/07 12:35:00;;;;;;;3.03;1.43;;;3.90;43.40;;;;;;6244476;23;20662;-87
2022/01/07 12:37:27;;;;;;;2.20;1.70;;;3.80;43.30;;;;;;6248105;22;20628;-85
2022/01/07 12:39:57;;;;;;;1.73;1.13;;;3.60;43.20;;;;;;6247628;22;20283;-83
2022/01/07 12:42:25;;;;;;;1.67;1.43;;;3.60;44.00;;;;;;6248300;23;20181;-86
2022/01/07 12:44:57;;;;;;;2.10;1.63;;;3.70;44.00;;;;;;6248516;22;20287;-90
2022/01/07 12:47:27;;;;;;;2.30;1.50;;;3.70;43.30;;;;;;6247703;23;20168;-87
2022/01/07 12:50:09;;;;;;;4.07;1.33;;;3.50;43.80;;;;;;6246726;23;20282;-87
2022/01/07 12:52:38;;;;;;;2.33;1.37;;;3.40;43.00;;;;;;6248862;23;20154;-86
2022/01/07 12:55:09;;;;;;;3.00;1.70;;;3.50;45.40;;;;;;6246607;23;20205;-93
2022/01/07 12:58:17;;;;;;;2.40;1.90;;;3.50;44.30;;;;;;6248813;23;20169;-84
2022/01/07 13:00:45;;;;;;;3.00;1.70;;;3.50;43.00;;;;;;6249884;23;20208;-85
2022/01/07 13:03:13;;;;;;;2.73;1.70;;;3.60;43.10;;;;;;6226193;23;20170;-85
2022/01/07 13:06:21;;;;;;;2.93;1.77;;;3.60;43.20;;;;;;6249168;23;20201;-86
2022/01/07 13:08:50;;;;;;;2.60;1.90;;;3.70;44.50;;;;;;6249768;23;20184;-86
2022/01/07 13:11:20;;;;;;;2.30;1.80;;;3.60;43.40;;;;;;6248967;23;20224;-82
2022/01/07 13:13:47;;;;;;;2.27;1.73;;;3.70;44.50;;;;;;6247770;23;20161;-87
2022/01/07 13:16:21;;;;;;;6.43;1.90;;;3.60;44.80;;;;;;6250997;22;20279;-85
2022/01/07 13:18:50;;;;;;;1.80;1.70;;;3.60;45.20;;;;;;6252660;23;20167;-87
2022/01/07 13:21:19;;;;;;;2.57;1.70;;;3.70;45.60;;;;;;6251513;23;20545;-89
2022/01/07 13:23:52;;;;;;;2.27;1.70;;;3.70;43.20;;;;;;6247533;23;20228;-87